createdAt,value
2018-06-20T00:01:16.533Z,0.00
2018-06-20T00:02:48.445Z,0.00
2018-06-20T00:04:20.157Z,0.00
2018-06-20T00:05:51.969Z,0.00
2018-06-20T00:07:23.865Z,0.00
2018-06-20T00:08:55.593Z,0.00
2018-06-20T00:10:27.410Z,0.00
2018-06-20T00:11:59.217Z,0.00
2018-06-20T00:13:31.029Z,0.00
2018-06-20T00:15:02.842Z,0.00
2018-06-20T00:16:34.653Z,0.00
2018-06-20T00:18:06.465Z,0.00
2018-06-20T00:19:38.277Z,0.00
2018-06-20T00:21:10.190Z,0.00
2018-06-20T00:22:41.902Z,0.00
2018-06-20T00:24:13.714Z,0.00
2018-06-20T00:25:45.526Z,0.00
2018-06-20T00:27:17.338Z,0.00
2018-06-20T00:28:49.151Z,0.00
2018-06-20T00:30:20.963Z,0.00
2018-06-20T00:31:52.775Z,0.00
2018-06-20T00:33:24.588Z,0.00
2018-06-20T00:34:56.402Z,0.00
2018-06-20T00:36:28.212Z,0.00
2018-06-20T00:38:00.026Z,0.00
2018-06-20T00:39:31.937Z,0.00
2018-06-20T00:41:03.649Z,0.00
2018-06-20T00:42:35.464Z,0.00
2018-06-20T00:44:07.273Z,0.00
2018-06-20T00:45:39.084Z,0.00
2018-06-20T00:47:10.897Z,0.00
2018-06-20T00:48:42.708Z,0.00
2018-06-20T00:50:14.520Z,0.00
2018-06-20T00:51:46.333Z,0.00
2018-06-20T00:53:18.146Z,0.00
2018-06-20T00:54:49.960Z,0.00
2018-06-20T00:57:53.685Z,0.00
2018-06-20T00:59:25.395Z,0.00
2018-06-20T01:00:57.213Z,0.00
2018-06-20T01:02:29.020Z,0.00
2018-06-20T01:04:00.832Z,0.00
2018-06-20T01:05:32.645Z,0.00
2018-06-20T01:07:04.458Z,0.00
2018-06-20T01:08:36.270Z,0.00
2018-06-20T01:10:08.082Z,0.00
2018-06-20T01:11:39.952Z,0.00
2018-06-20T01:13:11.707Z,0.00
2018-06-20T01:14:43.520Z,0.00
2018-06-20T01:16:16.133Z,0.00
2018-06-20T01:17:47.143Z,0.00
2018-06-20T01:19:18.955Z,0.00
2018-06-20T01:20:50.769Z,0.00
2018-06-20T01:22:22.580Z,0.00
2018-06-20T01:23:54.391Z,0.00
2018-06-20T01:25:26.203Z,0.00
2018-06-20T01:26:58.016Z,0.00
2018-06-20T01:28:29.928Z,0.00
2018-06-20T01:30:01.640Z,0.00
2018-06-20T01:31:33.452Z,0.00
2018-06-20T01:33:05.263Z,0.00
2018-06-20T01:34:37.177Z,0.00
2018-06-20T01:36:08.889Z,0.00
2018-06-20T01:37:40.699Z,0.00
2018-06-20T01:39:12.512Z,0.00
2018-06-20T01:40:44.324Z,0.00
2018-06-20T01:42:16.136Z,0.00
2018-06-20T01:43:47.950Z,0.00
2018-06-20T01:45:19.760Z,0.00
2018-06-20T01:46:51.571Z,0.00
2018-06-20T01:48:23.384Z,0.00
2018-06-20T01:49:55.195Z,0.00
2018-06-20T01:51:27.006Z,0.00
2018-06-20T01:52:58.919Z,0.00
2018-06-20T01:54:30.630Z,0.00
2018-06-20T01:56:02.442Z,0.00
2018-06-20T01:57:34.254Z,0.00
2018-06-20T01:59:06.068Z,0.00
2018-06-20T02:00:37.877Z,0.00
2018-06-20T02:02:09.690Z,0.00
2018-06-20T02:03:41.501Z,0.00
2018-06-20T02:05:13.313Z,0.00
2018-06-20T02:06:45.125Z,0.00
2018-06-20T02:08:16.936Z,0.00
2018-06-20T02:09:48.748Z,0.00
2018-06-20T02:11:20.660Z,0.00
2018-06-20T02:12:52.370Z,0.00
2018-06-20T02:14:24.182Z,0.00
2018-06-20T02:15:55.994Z,0.00
2018-06-20T02:17:27.805Z,0.00
2018-06-20T02:18:59.616Z,0.00
2018-06-20T02:20:31.429Z,0.00
2018-06-20T02:22:03.238Z,0.00
2018-06-20T02:23:35.050Z,0.00
2018-06-20T02:25:06.861Z,0.00
2018-06-20T02:26:38.674Z,0.00
2018-06-20T02:28:10.485Z,0.00
2018-06-20T02:29:42.395Z,0.00
2018-06-20T02:31:14.109Z,0.00
2018-06-20T02:32:45.918Z,0.00
2018-06-20T02:34:17.728Z,0.00
2018-06-20T02:35:49.539Z,0.00
2018-06-20T02:37:21.351Z,0.00
2018-06-20T02:38:53.164Z,0.00
2018-06-20T02:40:24.973Z,0.00
2018-06-20T02:41:56.783Z,0.00
2018-06-20T02:43:28.594Z,0.00
2018-06-20T02:45:00.405Z,0.00
2018-06-20T02:46:32.216Z,0.00
2018-06-20T02:48:04.928Z,0.00
2018-06-20T02:49:35.839Z,0.00
2018-06-20T02:51:07.650Z,0.00
2018-06-20T02:52:39.495Z,0.00
2018-06-20T02:54:11.269Z,0.00
2018-06-20T02:55:43.085Z,0.00
2018-06-20T02:57:14.891Z,0.00
2018-06-20T02:58:46.702Z,0.00
2018-06-20T03:00:18.511Z,0.00
2018-06-20T03:01:50.324Z,0.00
2018-06-20T03:03:22.187Z,0.00
2018-06-20T03:04:53.943Z,0.00
2018-06-20T03:06:25.854Z,0.00
2018-06-20T03:07:57.564Z,0.00
2018-06-20T03:09:29.375Z,0.00
2018-06-20T03:11:01.186Z,0.00
2018-06-20T03:12:32.996Z,0.00
2018-06-20T03:14:04.807Z,0.00
2018-06-20T03:15:36.617Z,0.00
2018-06-20T03:17:08.432Z,0.00
2018-06-20T03:18:40.239Z,0.00
2018-06-20T03:20:12.050Z,0.00
2018-06-20T03:21:43.860Z,0.00
2018-06-20T03:23:15.670Z,0.00
2018-06-20T03:24:47.581Z,0.00
2018-06-20T03:26:19.291Z,0.00
2018-06-20T03:27:51.101Z,0.00
2018-06-20T03:29:22.911Z,0.00
2018-06-20T03:30:54.722Z,0.00
2018-06-20T03:32:26.535Z,0.00
2018-06-20T03:33:58.343Z,0.00
2018-06-20T03:35:30.153Z,0.00
2018-06-20T03:37:01.963Z,0.00
2018-06-20T03:38:33.773Z,0.00
2018-06-20T03:40:05.583Z,0.00
2018-06-20T03:41:37.392Z,0.00
2018-06-20T03:43:09.303Z,0.00
2018-06-20T03:44:41.012Z,0.00
2018-06-20T03:46:12.824Z,0.00
2018-06-20T03:47:44.633Z,0.00
2018-06-20T03:49:16.443Z,0.00
2018-06-20T03:50:48.253Z,0.00
2018-06-20T03:52:20.063Z,0.00
2018-06-20T03:53:51.873Z,0.00
2018-06-20T03:55:23.683Z,0.00
2018-06-20T03:56:55.493Z,0.00
2018-06-20T03:58:27.304Z,0.00
2018-06-20T03:59:59.114Z,0.00
2018-06-20T04:01:31.024Z,0.00
2018-06-20T04:03:02.734Z,0.00
2018-06-20T04:04:34.543Z,0.00
2018-06-20T04:06:06.355Z,0.00
2018-06-20T04:07:38.164Z,0.00
2018-06-20T04:09:09.974Z,0.00
2018-06-20T04:10:41.784Z,0.00
2018-06-20T04:12:13.594Z,0.00
2018-06-20T04:13:45.405Z,0.00
2018-06-20T04:15:17.214Z,0.00
2018-06-20T04:16:49.026Z,0.00
2018-06-20T04:18:20.873Z,0.00
2018-06-20T04:19:52.745Z,0.00
2018-06-20T04:21:24.454Z,0.00
2018-06-20T04:22:56.264Z,0.00
2018-06-20T04:24:28.075Z,0.00
2018-06-20T04:25:59.885Z,0.00
2018-06-20T04:27:31.694Z,0.00
2018-06-20T04:29:03.506Z,0.00
2018-06-20T04:30:35.314Z,0.00
2018-06-20T04:32:07.123Z,0.00
2018-06-20T04:33:38.934Z,0.00
2018-06-20T04:35:10.744Z,0.00
2018-06-20T04:36:42.554Z,0.00
2018-06-20T04:38:14.463Z,0.00
2018-06-20T04:39:46.174Z,0.00
2018-06-20T04:41:17.983Z,0.00
2018-06-20T04:42:49.793Z,0.00
2018-06-20T04:44:21.603Z,0.00
2018-06-20T04:45:53.417Z,0.00
2018-06-20T04:47:25.221Z,0.00
2018-06-20T04:48:57.041Z,0.00
2018-06-20T04:50:28.842Z,0.00
2018-06-20T04:52:00.653Z,0.00
2018-06-20T04:53:32.461Z,0.00
2018-06-20T04:55:04.274Z,0.00
2018-06-20T04:56:36.185Z,0.00
2018-06-20T04:58:07.891Z,0.00
2018-06-20T04:59:39.701Z,0.00
2018-06-20T05:01:11.512Z,0.00
2018-06-20T05:02:43.420Z,0.00
2018-06-20T05:04:15.189Z,0.00
2018-06-20T05:05:46.939Z,0.00
2018-06-20T05:07:18.750Z,0.00
2018-06-20T05:08:50.561Z,0.00
2018-06-20T05:10:22.369Z,0.00
2018-06-20T05:11:54.178Z,0.00
2018-06-20T05:13:25.989Z,0.00
2018-06-20T05:14:57.898Z,0.00
2018-06-20T05:16:29.607Z,0.00
2018-06-20T05:18:01.417Z,0.00
2018-06-20T05:19:33.227Z,0.00
2018-06-20T05:21:05.040Z,0.00
2018-06-20T05:22:36.853Z,0.00
2018-06-20T05:24:08.656Z,0.00
2018-06-20T05:25:40.465Z,0.00
2018-06-20T05:27:12.274Z,0.00
2018-06-20T05:28:44.084Z,0.00
2018-06-20T05:30:15.894Z,0.00
2018-06-20T05:31:47.704Z,0.00
2018-06-20T05:33:19.764Z,0.00
2018-06-20T05:34:51.323Z,0.00
2018-06-20T05:36:23.133Z,0.00
2018-06-20T05:37:54.942Z,0.00
2018-06-20T05:39:26.752Z,0.00
2018-06-20T05:40:58.562Z,0.00
2018-06-20T05:42:30.372Z,0.00
2018-06-20T05:44:02.181Z,0.00
2018-06-20T05:45:33.991Z,0.00
2018-06-20T05:47:05.801Z,0.00
2018-06-20T05:48:37.611Z,0.00
2018-06-20T05:50:09.421Z,0.00
2018-06-20T05:51:41.331Z,0.00
2018-06-20T05:53:13.043Z,0.00
2018-06-20T05:54:44.852Z,0.00
2018-06-20T05:56:16.660Z,0.00
2018-06-20T05:57:48.469Z,0.00
2018-06-20T05:59:20.279Z,0.00
2018-06-20T06:00:52.140Z,0.00
2018-06-20T06:02:23.898Z,0.00
2018-06-20T06:03:55.709Z,0.00
2018-06-20T06:05:27.518Z,0.00
2018-06-20T06:06:59.328Z,0.00
2018-06-20T06:08:31.138Z,0.00
2018-06-20T06:10:03.198Z,0.00
2018-06-20T06:11:34.760Z,0.00
2018-06-20T06:13:06.567Z,0.00
2018-06-20T06:14:38.378Z,0.00
2018-06-20T06:16:10.189Z,0.00
2018-06-20T06:17:41.997Z,0.00
2018-06-20T06:19:13.807Z,0.00
2018-06-20T06:20:45.617Z,0.00
2018-06-20T06:22:17.427Z,0.00
2018-06-20T06:23:49.237Z,0.00
2018-06-20T06:25:21.047Z,0.00
2018-06-20T06:26:52.857Z,0.00
2018-06-20T06:28:24.817Z,0.00
2018-06-20T06:29:56.476Z,0.00
2018-06-20T06:31:28.286Z,0.00
2018-06-20T06:33:00.096Z,0.00
2018-06-20T06:34:32.006Z,0.00
2018-06-20T06:36:03.715Z,0.00
2018-06-20T06:37:35.528Z,0.00
2018-06-20T06:39:07.335Z,0.00
2018-06-20T06:40:39.144Z,0.00
2018-06-20T06:42:10.954Z,0.00
2018-06-20T06:43:42.764Z,0.00
2018-06-20T06:45:14.574Z,0.00
2018-06-20T06:46:46.734Z,0.00
2018-06-20T06:48:18.193Z,0.00
2018-06-20T06:49:50.189Z,0.00
2018-06-20T06:51:21.812Z,0.00
2018-06-20T06:52:53.622Z,0.00
2018-06-20T06:54:25.432Z,0.00
2018-06-20T06:55:57.297Z,0.00
2018-06-20T06:57:29.051Z,0.00
2018-06-20T06:59:00.860Z,0.00
2018-06-20T07:00:32.671Z,0.00
2018-06-20T07:02:04.483Z,0.00
2018-06-20T07:03:36.289Z,0.00
2018-06-20T07:05:08.199Z,0.00
2018-06-20T07:06:39.909Z,0.00
2018-06-20T07:08:11.718Z,0.00
2018-06-20T07:09:43.529Z,0.00
2018-06-20T07:11:15.337Z,0.00
2018-06-20T07:12:47.162Z,0.00
2018-06-20T07:14:18.960Z,0.00
2018-06-20T07:15:50.767Z,0.00
2018-06-20T07:17:22.578Z,0.00
2018-06-20T07:18:54.387Z,0.00
2018-06-20T07:20:26.199Z,0.00
2018-06-20T07:21:58.006Z,0.00
2018-06-20T07:23:29.916Z,0.00
2018-06-20T07:25:01.630Z,0.00
2018-06-20T07:26:33.435Z,0.00
2018-06-20T07:28:05.245Z,0.00
2018-06-20T07:29:37.055Z,0.00
2018-06-20T07:31:08.868Z,0.00
2018-06-20T07:32:40.675Z,0.00
2018-06-20T07:34:12.533Z,0.00
2018-06-20T07:35:44.514Z,0.00
2018-06-20T07:37:16.109Z,0.00
2018-06-20T07:38:47.915Z,0.00
2018-06-20T07:40:19.725Z,0.00
2018-06-20T07:41:51.635Z,0.00
2018-06-20T07:43:23.345Z,0.00
2018-06-20T07:44:55.156Z,0.00
2018-06-20T07:46:26.965Z,0.00
2018-06-20T07:47:58.935Z,0.00
2018-06-20T07:49:30.585Z,0.00
2018-06-20T07:51:02.394Z,0.00
2018-06-20T07:52:34.204Z,0.00
2018-06-20T07:54:06.014Z,0.00
2018-06-20T07:55:37.824Z,0.00
2018-06-20T07:57:09.633Z,0.00
2018-06-20T07:58:41.444Z,0.00
2018-06-20T08:00:13.353Z,0.00
2018-06-20T08:01:45.070Z,0.00
2018-06-20T08:03:16.871Z,0.00
2018-06-20T08:04:48.682Z,0.00
2018-06-20T08:06:20.567Z,0.00
2018-06-20T08:07:52.301Z,0.00
2018-06-20T08:09:24.111Z,0.00
2018-06-20T08:10:55.921Z,0.00
2018-06-20T08:12:27.784Z,0.00
2018-06-20T08:13:59.541Z,0.00
2018-06-20T08:15:31.350Z,0.00
2018-06-20T08:17:03.160Z,0.00
2018-06-20T08:18:35.823Z,0.00
2018-06-20T08:20:06.779Z,0.00
2018-06-20T08:21:38.589Z,0.00
2018-06-20T08:23:10.399Z,0.00
2018-06-20T08:24:42.208Z,0.00
2018-06-20T08:26:14.018Z,0.00
2018-06-20T08:27:45.827Z,0.00
2018-06-20T08:29:17.636Z,0.00
2018-06-20T08:30:49.446Z,0.00
2018-06-20T08:32:21.287Z,0.00
2018-06-20T08:33:53.066Z,0.00
2018-06-20T08:35:24.875Z,0.00
2018-06-20T08:36:56.935Z,0.00
2018-06-20T08:38:28.494Z,0.00
2018-06-20T08:40:00.305Z,0.00
2018-06-20T08:41:32.113Z,0.00
2018-06-20T08:43:03.923Z,0.00
2018-06-20T08:44:35.733Z,0.00
2018-06-20T08:46:07.545Z,0.00
2018-06-20T08:47:39.352Z,0.00
2018-06-20T08:49:11.162Z,0.00
2018-06-20T08:50:42.971Z,0.00
2018-06-20T08:52:14.780Z,0.00
2018-06-20T08:53:46.592Z,0.00
2018-06-20T08:55:18.500Z,0.00
2018-06-20T08:56:50.208Z,0.00
2018-06-20T08:58:22.017Z,0.00
2018-06-20T08:59:53.827Z,0.00
2018-06-20T09:01:25.636Z,0.00
2018-06-20T09:02:57.446Z,0.00
2018-06-20T09:04:29.255Z,0.00
2018-06-20T09:06:01.065Z,0.00
2018-06-20T09:07:32.975Z,0.00
2018-06-20T09:09:04.684Z,0.00
2018-06-20T09:10:36.494Z,0.00
2018-06-20T09:12:08.303Z,0.00
2018-06-20T09:13:40.213Z,0.00
2018-06-20T09:15:11.922Z,0.00
2018-06-20T09:16:43.737Z,0.00
2018-06-20T09:18:15.541Z,0.00
2018-06-20T09:19:47.350Z,0.00
2018-06-20T09:21:19.159Z,0.00
2018-06-20T09:22:50.969Z,4.00
2018-06-20T09:24:22.778Z,4.00
2018-06-20T09:25:54.588Z,4.00
2018-06-20T09:27:26.397Z,4.00
2018-06-20T09:28:58.207Z,12.00
2018-06-20T09:30:30.017Z,12.00
2018-06-20T09:32:01.931Z,20.00
2018-06-20T09:33:33.635Z,28.00
2018-06-20T09:35:05.444Z,36.00
2018-06-20T09:36:37.253Z,52.00
2018-06-20T09:38:09.063Z,68.00
2018-06-20T09:39:40.881Z,92.00
2018-06-20T09:41:12.682Z,124.00
2018-06-20T09:42:44.491Z,168.00
2018-06-20T09:44:16.307Z,216.00
2018-06-20T09:45:48.110Z,272.00
2018-06-20T09:47:19.923Z,332.00
2018-06-20T09:48:51.729Z,400.00
2018-06-20T09:50:23.638Z,468.00
2018-06-20T09:51:55.347Z,540.00
2018-06-20T09:53:27.158Z,636.00
2018-06-20T09:56:30.775Z,848.00
2018-06-20T09:58:02.605Z,924.00
2018-06-20T09:59:34.394Z,1040.00
2018-06-20T10:01:06.203Z,1160.00
2018-06-20T10:02:38.013Z,1308.00
2018-06-20T10:04:09.822Z,1424.00
2018-06-20T10:05:41.643Z,1516.00
2018-06-20T10:07:13.444Z,1704.00
2018-06-20T10:08:45.350Z,1776.00
2018-06-20T10:10:17.060Z,1924.00
2018-06-20T10:11:49.375Z,2168.00
2018-06-20T10:13:20.983Z,2408.00
2018-06-20T10:14:52.489Z,2716.00
2018-06-20T10:16:24.305Z,2876.00
2018-06-20T10:17:56.107Z,3104.00
2018-06-20T10:19:27.917Z,3108.00
2018-06-20T10:20:59.735Z,3224.00
2018-06-20T10:22:31.536Z,3364.00
2018-06-20T10:24:03.648Z,3776.00
2018-06-20T10:25:35.157Z,3864.00
2018-06-20T10:27:07.066Z,4152.00
2018-06-20T10:28:39.230Z,4368.00
2018-06-20T10:30:10.586Z,4780.00
2018-06-20T10:31:42.395Z,5048.00
2018-06-20T10:33:14.247Z,4920.00
2018-06-20T10:34:46.019Z,5136.00
2018-06-20T10:36:18.361Z,5588.00
2018-06-20T10:37:49.636Z,6620.00
2018-06-20T10:40:53.257Z,7672.00
2018-06-20T10:42:25.068Z,6736.00
2018-06-20T10:43:57.788Z,7428.00
2018-06-20T10:45:29.223Z,7404.00
2018-06-20T10:48:32.412Z,7052.00
2018-06-20T10:50:04.330Z,7576.00
2018-06-20T10:51:36.886Z,9092.00
2018-06-20T10:53:07.747Z,9296.00
2018-06-20T10:54:39.923Z,9628.00
2018-06-20T10:57:43.998Z,9764.00
2018-06-20T10:59:15.200Z,10420.00
2018-06-20T11:00:46.902Z,10748.00
2018-06-20T11:02:18.619Z,10964.00
2018-06-20T11:05:22.255Z,11288.00
2018-06-20T11:06:54.411Z,11832.00
2018-06-20T11:08:25.890Z,12376.00
2018-06-20T11:11:29.498Z,13704.00
2018-06-20T11:13:01.379Z,14132.00
2018-06-20T11:14:33.127Z,14560.00
2018-06-20T11:16:04.971Z,15996.00
2018-06-20T11:17:36.765Z,19648.00
2018-06-20T11:19:08.571Z,17248.00
2018-06-20T11:20:40.387Z,14568.00
2018-06-20T11:22:12.253Z,14444.00
2018-06-20T11:23:44.017Z,14516.00
2018-06-20T11:25:15.933Z,14696.00
2018-06-20T11:26:47.656Z,14912.00
2018-06-20T11:28:19.465Z,14912.00
2018-06-20T11:29:51.339Z,14696.00
2018-06-20T11:31:23.416Z,15144.00
2018-06-20T11:34:26.731Z,15764.00
2018-06-20T11:35:58.548Z,15484.00
2018-06-20T11:37:30.373Z,15724.00
2018-06-20T11:39:02.183Z,16792.00
2018-06-20T11:40:34.003Z,17184.00
2018-06-20T11:42:05.816Z,18336.00
2018-06-20T11:43:37.732Z,19040.00
2018-06-20T11:45:09.450Z,20928.00
2018-06-20T11:48:13.086Z,25536.00
2018-06-20T11:49:45.106Z,25696.00
2018-06-20T11:51:16.783Z,26848.00
2018-06-20T11:52:48.536Z,27552.00
2018-06-20T11:54:20.353Z,27808.00
2018-06-20T11:55:52.173Z,29344.00
2018-06-20T11:57:24.001Z,29152.00
2018-06-20T11:58:55.808Z,29184.00
2018-06-20T12:00:27.668Z,29664.00
2018-06-20T12:02:00.294Z,29856.00
2018-06-20T12:03:31.264Z,29248.00
2018-06-20T12:05:03.095Z,28736.00
2018-06-20T12:06:34.901Z,29632.00
2018-06-20T12:08:06.723Z,28832.00
2018-06-20T12:09:38.537Z,30112.00
2018-06-20T12:11:10.360Z,30560.00
2018-06-20T12:12:42.174Z,30272.00
2018-06-20T12:14:14.820Z,29216.00
2018-06-20T12:15:45.812Z,29984.00
2018-06-20T12:17:17.631Z,31168.00
2018-06-20T12:18:49.982Z,31904.00
2018-06-20T12:21:53.459Z,33984.00
2018-06-20T12:24:56.777Z,34176.00
2018-06-20T12:26:28.546Z,34464.00
2018-06-20T12:28:00.897Z,37248.00
2018-06-20T12:29:32.489Z,36704.00
2018-06-20T12:31:04.005Z,39712.00
2018-06-20T12:32:35.824Z,41312.00
2018-06-20T12:34:07.718Z,41888.00
2018-06-20T12:35:39.463Z,44160.00
2018-06-20T12:37:11.790Z,46976.00
2018-06-20T12:38:43.103Z,55488.00
2018-06-20T12:40:15.931Z,79840.00
2018-06-20T12:41:46.743Z,89824.00
2018-06-20T12:43:19.167Z,72480.00
2018-06-20T12:44:50.384Z,43360.00
2018-06-20T12:47:54.032Z,32416.00
2018-06-20T12:49:25.859Z,31648.00
2018-06-20T12:50:57.765Z,30496.00
2018-06-20T12:54:01.306Z,33312.00
2018-06-20T12:55:33.430Z,30336.00
2018-06-20T12:57:05.349Z,29056.00
2018-06-20T12:58:36.974Z,29952.00
2018-06-20T13:00:08.689Z,32320.00
2018-06-20T13:01:40.409Z,32608.00
2018-06-20T13:03:12.763Z,30784.00
2018-06-20T13:04:44.290Z,31296.00
2018-06-20T13:06:15.871Z,32224.00
2018-06-20T13:07:47.694Z,32384.00
2018-06-20T13:10:51.336Z,30752.00
2018-06-20T13:13:55.178Z,27424.00
2018-06-20T13:16:58.627Z,29184.00
2018-06-20T13:18:30.443Z,28608.00
2018-06-20T13:20:02.363Z,28832.00
2018-06-20T13:21:34.132Z,33952.00
2018-06-20T13:23:05.902Z,33376.00
2018-06-20T13:24:38.257Z,30496.00
2018-06-20T13:26:09.543Z,28416.00
2018-06-20T13:27:41.365Z,25248.00
2018-06-20T13:30:45.011Z,24448.00
2018-06-20T13:32:17.360Z,23520.00
2018-06-20T13:33:48.655Z,23072.00
2018-06-20T13:36:53.231Z,22560.00
2018-06-20T13:39:56.197Z,22400.00
2018-06-20T13:41:28.063Z,22560.00
2018-06-20T13:42:59.586Z,22304.00
2018-06-20T13:44:31.409Z,22240.00
2018-06-20T13:46:03.832Z,22048.00
2018-06-20T13:47:35.110Z,21888.00
2018-06-20T13:50:38.700Z,21760.00
2018-06-20T13:53:42.438Z,21984.00
2018-06-20T13:55:14.692Z,22080.00
2018-06-20T13:56:45.997Z,21984.00
2018-06-20T13:58:17.804Z,22016.00
2018-06-20T13:59:49.827Z,22016.00
2018-06-20T14:01:21.466Z,21952.00
2018-06-20T14:02:53.274Z,21952.00
2018-06-20T14:05:57.022Z,21984.00
2018-06-20T14:07:28.745Z,21952.00
2018-06-20T14:09:01.100Z,22304.00
2018-06-20T14:10:32.396Z,21920.00
2018-06-20T14:12:05.180Z,22048.00
2018-06-20T14:13:36.237Z,21984.00
2018-06-20T14:15:08.389Z,21984.00
2018-06-20T14:19:43.427Z,21952.00
2018-06-20T14:21:15.150Z,22080.00
2018-06-20T14:22:46.974Z,22208.00
2018-06-20T14:24:19.329Z,22304.00
2018-06-20T14:25:50.621Z,22400.00
2018-06-20T14:27:22.977Z,22528.00
2018-06-20T14:30:26.547Z,22624.00
2018-06-20T14:31:58.157Z,22944.00
2018-06-20T14:33:30.145Z,22880.00
2018-06-20T14:35:01.736Z,22912.00
2018-06-20T14:36:33.388Z,23136.00
2018-06-20T14:38:05.310Z,23200.00
2018-06-20T14:39:37.281Z,23136.00
2018-06-20T14:41:09.060Z,23680.00
2018-06-20T14:42:40.683Z,23680.00
2018-06-20T14:44:12.506Z,24032.00
2018-06-20T14:45:44.337Z,24800.00
2018-06-20T14:47:16.166Z,24896.00
2018-06-20T14:48:47.980Z,25184.00
2018-06-20T14:50:20.336Z,25216.00
2018-06-20T14:51:51.625Z,25728.00
2018-06-20T14:54:55.272Z,26688.00
2018-06-20T14:57:59.019Z,27584.00
2018-06-20T14:59:31.047Z,27104.00
2018-06-20T15:01:02.809Z,29024.00
2018-06-20T15:02:34.537Z,30272.00
2018-06-20T15:04:06.663Z,31296.00
2018-06-20T15:05:38.687Z,34560.00
2018-06-20T15:07:10.754Z,46816.00
2018-06-20T15:08:41.926Z,57888.00
2018-06-20T15:10:13.639Z,66208.00
2018-06-20T15:11:45.347Z,63712.00
2018-06-20T15:13:17.190Z,67264.00
2018-06-20T15:14:48.987Z,69696.00
2018-06-20T15:16:20.917Z,69248.00
2018-06-20T15:17:52.632Z,72704.00
2018-06-20T15:19:24.987Z,73568.00
2018-06-20T15:20:56.343Z,72928.00
2018-06-20T15:22:28.104Z,76000.00
2018-06-20T15:24:00.286Z,80352.00
2018-06-20T15:25:31.921Z,77760.00
2018-06-20T15:27:03.610Z,81280.00
2018-06-20T15:28:35.704Z,74240.00
2018-06-20T15:30:07.226Z,80224.00
2018-06-20T15:31:39.049Z,74592.00
2018-06-20T15:33:10.876Z,74080.00
2018-06-20T15:34:43.021Z,63328.00
2018-06-20T15:36:14.551Z,35360.00
2018-06-20T15:37:46.356Z,66912.00
2018-06-20T15:39:18.177Z,72704.00
2018-06-20T15:42:22.123Z,79968.00
2018-06-20T15:43:55.362Z,76288.00
2018-06-20T15:45:25.469Z,74016.00
2018-06-20T15:48:29.124Z,71136.00
2018-06-20T15:50:00.940Z,72320.00
2018-06-20T15:51:32.765Z,62784.00
2018-06-20T15:53:04.589Z,11472.00
2018-06-20T15:54:37.047Z,10888.00
2018-06-20T15:56:08.237Z,22528.00
2018-06-20T15:57:40.263Z,76448.00
2018-06-20T15:59:11.935Z,75904.00
2018-06-20T16:00:43.706Z,72928.00
2018-06-20T16:02:15.548Z,71616.00
2018-06-20T16:03:47.859Z,73440.00
2018-06-20T16:06:51.000Z,69728.00
2018-06-20T16:08:22.824Z,78080.00
2018-06-20T16:09:54.648Z,72832.00
2018-06-20T16:11:26.777Z,75040.00
2018-06-20T16:12:58.700Z,74528.00
2018-06-20T16:14:30.121Z,73248.00
2018-06-20T16:16:01.951Z,75872.00
2018-06-20T16:17:33.771Z,78656.00
2018-06-20T16:19:05.595Z,74208.00
2018-06-20T16:20:37.436Z,67648.00
2018-06-20T16:22:09.244Z,67872.00
2018-06-20T16:25:12.956Z,56992.00
2018-06-20T16:26:44.745Z,70624.00
2018-06-20T16:28:17.077Z,79904.00
2018-06-20T16:29:48.367Z,78784.00
2018-06-20T16:31:20.496Z,79776.00
2018-06-20T16:32:52.550Z,77152.00
2018-06-20T16:34:23.860Z,77312.00
2018-06-20T16:35:55.690Z,80032.00
2018-06-20T16:37:27.638Z,76160.00
2018-06-20T16:40:31.141Z,77664.00
2018-06-20T16:42:02.973Z,77504.00
2018-06-20T16:43:34.905Z,76160.00
2018-06-20T16:46:38.643Z,78912.00
2018-06-20T16:48:10.468Z,80960.00
2018-06-20T16:49:42.340Z,80192.00
2018-06-20T16:51:13.925Z,80864.00
2018-06-20T16:52:45.740Z,79456.00
2018-06-20T16:54:17.562Z,75712.00
2018-06-20T16:55:49.555Z,79808.00
2018-06-20T16:58:53.047Z,77440.00
2018-06-20T17:00:24.878Z,76896.00
2018-06-20T17:01:56.992Z,75392.00
2018-06-20T17:03:28.577Z,78208.00
2018-06-20T17:08:04.083Z,72832.00
2018-06-20T17:09:35.807Z,72608.00
2018-06-20T17:11:07.633Z,63616.00
2018-06-20T17:12:39.532Z,58464.00
2018-06-20T17:14:11.333Z,56992.00
2018-06-20T17:15:43.606Z,57024.00
2018-06-20T17:17:14.931Z,54976.00
2018-06-20T17:18:46.755Z,57376.00
2018-06-20T17:20:18.581Z,60096.00
2018-06-20T17:23:22.232Z,60416.00
2018-06-20T17:24:54.116Z,61056.00
2018-06-20T17:26:25.980Z,61440.00
2018-06-20T17:27:57.707Z,63296.00
2018-06-20T17:29:29.698Z,61536.00
2018-06-20T17:31:01.363Z,65248.00
2018-06-20T17:32:33.586Z,67712.00
2018-06-20T17:34:05.037Z,69856.00
2018-06-20T17:35:36.835Z,70624.00
2018-06-20T17:37:08.651Z,68032.00
2018-06-20T17:40:12.308Z,67296.00
2018-06-20T17:41:44.428Z,61824.00
2018-06-20T17:43:16.502Z,55008.00
2018-06-20T17:44:48.082Z,49120.00
2018-06-20T17:46:19.766Z,51072.00
2018-06-20T17:47:51.809Z,51840.00
2018-06-20T17:49:23.254Z,53088.00
2018-06-20T17:50:55.385Z,56896.00
2018-06-20T17:52:26.915Z,55840.00
2018-06-20T17:53:58.718Z,52928.00
2018-06-20T17:55:30.542Z,50272.00
2018-06-20T17:57:02.383Z,49504.00
2018-06-20T17:58:34.194Z,48960.00
2018-06-20T18:00:06.223Z,47232.00
2018-06-20T18:01:38.271Z,44288.00
2018-06-20T18:03:09.668Z,42624.00
2018-06-20T18:04:41.737Z,39872.00
2018-06-20T18:06:13.310Z,37728.00
2018-06-20T18:07:45.338Z,36448.00
2018-06-20T18:10:50.310Z,9252.00
2018-06-20T18:12:20.646Z,9928.00
2018-06-20T18:13:52.731Z,8988.00
2018-06-20T18:15:24.252Z,8276.00
2018-06-20T18:16:56.356Z,8032.00
2018-06-20T18:18:27.895Z,7784.00
2018-06-20T18:21:31.848Z,8056.00
2018-06-20T18:23:03.462Z,9432.00
2018-06-20T18:24:35.183Z,24832.00
2018-06-20T18:26:07.003Z,28576.00
2018-06-20T18:27:38.824Z,29088.00
2018-06-20T18:29:10.646Z,29728.00
2018-06-20T18:30:42.469Z,30208.00
2018-06-20T18:32:14.298Z,30976.00
2018-06-20T18:35:17.938Z,29408.00
2018-06-20T18:36:50.061Z,28672.00
2018-06-20T18:38:21.653Z,13184.00
2018-06-20T18:39:53.406Z,10268.00
2018-06-20T18:41:25.372Z,9716.00
2018-06-20T18:42:57.043Z,9300.00
2018-06-20T18:44:28.886Z,8956.00
2018-06-20T18:46:01.234Z,8688.00
2018-06-20T18:47:33.041Z,8320.00
2018-06-20T18:49:04.329Z,8020.00
2018-06-20T18:52:07.971Z,7692.00
2018-06-20T18:53:39.792Z,7524.00
2018-06-20T18:55:11.704Z,7584.00
2018-06-20T18:56:43.444Z,7580.00
2018-06-20T18:58:15.258Z,7980.00
2018-06-20T18:59:47.174Z,14176.00
2018-06-20T19:01:19.101Z,15296.00
2018-06-20T19:02:50.915Z,15200.00
2018-06-20T19:04:23.064Z,14496.00
2018-06-20T19:05:54.354Z,15264.00
2018-06-20T19:07:26.707Z,15488.00
2018-06-20T19:08:58.011Z,15232.00
2018-06-20T19:10:29.816Z,15136.00
2018-06-20T19:12:01.734Z,15040.00
2018-06-20T19:13:33.456Z,14816.00
2018-06-20T19:15:05.279Z,15040.00
2018-06-20T19:16:37.097Z,14144.00
2018-06-20T19:19:41.143Z,12320.00
2018-06-20T19:21:12.561Z,11244.00
2018-06-20T19:24:16.204Z,6384.00
2018-06-20T19:25:49.068Z,6420.00
2018-06-20T19:27:19.847Z,6408.00
2018-06-20T19:28:51.667Z,6360.00
2018-06-20T19:30:23.503Z,6332.00
2018-06-20T19:31:55.410Z,6312.00
2018-06-20T19:33:27.228Z,6372.00
2018-06-20T19:36:30.771Z,6268.00
2018-06-20T19:38:03.045Z,6160.00
2018-06-20T19:41:06.233Z,6060.00
2018-06-20T19:42:38.277Z,6396.00
2018-06-20T19:44:10.098Z,6540.00
2018-06-20T19:45:41.693Z,6296.00
2018-06-20T19:47:13.519Z,5984.00
2018-06-20T19:48:45.634Z,5524.00
2018-06-20T19:50:17.150Z,4716.00
2018-06-20T19:56:27.036Z,3472.00
2018-06-20T19:57:56.362Z,3388.00
2018-06-20T19:59:29.077Z,3228.00
2018-06-20T20:01:00.146Z,3016.00
2018-06-20T20:02:32.391Z,2780.00
2018-06-20T20:04:04.113Z,2552.00
2018-06-20T20:05:35.342Z,2376.00
2018-06-20T20:07:07.694Z,2212.00
2018-06-20T20:08:38.981Z,2044.00
2018-06-20T20:10:11.001Z,1892.00
2018-06-20T20:11:42.617Z,1724.00
2018-06-20T20:13:14.739Z,1568.00
2018-06-20T20:14:46.457Z,1416.00
2018-06-20T20:16:18.073Z,1260.00
2018-06-20T20:17:49.893Z,1104.00
2018-06-20T20:19:21.711Z,964.00
2018-06-20T20:20:54.462Z,820.00
2018-06-20T20:22:25.344Z,680.00
2018-06-20T20:23:57.162Z,560.00
2018-06-20T20:25:29.008Z,456.00
2018-06-20T20:27:00.896Z,364.00